Arapahoe, CO

10:36 AM MDT on September 16, 2014 (GMT -0600)
KWS | Change Station
CLOSE
Current Station
Personal Weather Station
Location: Cheyenne Wells, CO
Elevation: 4252 ft
Nearby Weather Stations

Elev 4252 ft 38.82 °N, 102.33 °W | Updated 41 seconds ago

Clear
Clear
66.0 °F
Feels Like 66.0 °F
N
11.0
Wind Variable Wind from WSW
Gusts 17.0 mph

Today
High -- | Low -- °F
--% Chance of Precip.
Yesterday
High -- | Low -- °F
Precip. -- in
6:31 AM 6:55 PM
Last Quarter, 44% visible
Pressure 30.06 in
Visibility 10.0 miles
Clouds Clear
Dew Point 55 °F
Humidity 67%
Rainfall 0.00 in
Snow Depth 0 in , 0 in , 0 in
UV 5 out of 12
Pollen 6.10 out of 12
Air Quality Not available.
Flu Activity Not available.
METAR KITR 161553Z AUTO 23013KT 10SM CLR 18/11 A3016 RMK AO2 SLP178 T01830111

More Conditions Fewer Conditions

Pressure 30.06 in
Visibility 10.0 miles
Clouds Clear
Dew Point 55 °F
Humidity 67%
Rainfall 0.00 in
Snow Depth 0 in , 0 in , 0 in
UV 5 out of 12
Pollen 6.10 out of 12
Air Quality Not available.
Flu Activity Not available.
METAR KITR 161553Z AUTO 23013KT 10SM CLR 18/11 A3016 RMK AO2 SLP178 T01830111

More Conditions Fewer Conditions

10-Day Weather Forecast

Almanac

Astronomy

Sep. 16, 2014 Rise Set
Actual Time 6:31 AM MDT 6:55 PM MDT
Civil Twilight 6:04 AM MDT 7:22 PM MDT
Nautical Twilight 5:33 AM MDT 7:53 PM MDT
Astronomical Twilight 5:00 AM MDT 8:25 PM MDT
Moon No Moon Rise 2:18 PM MDT
Length of Visible Light 13h 17m
Length of Day
12h 24m
Tomorrow will be 2m 31s shorter.
Last Quarter, 44% of the Moon is Illuminated
Today
Last Quarter
Sep 24
New
Oct 1
First Quarter
Oct 8
Full
Oct 15
Last Quarter

Today's Extremes

State Highs State Lows

Community

WunderPhotos

Upload Photos

1,753,824 photos uploaded!

Nearby

Snow Depth

Station Depth Elevation
Red Mountain Pass 0 in 11150 ft
Bear RIver 0 in 9080 ft
Bison Lake 0 in 10880 ft
Copper Mountain 0 in 10500 ft
Jackwhacker Gulch 0 in 10960 ft

Earthquake Activity

City Distance Mag. Time & Date
No recent earthquake activity has been reported nearby.
Minimum magnitude displayed is 2.5.

Coastal Water Temperatures

Place Temperature
No Stations Reporting

Nearby Weather Stations